Time;durP1;ratioP1;P1;durP2;ratioP2;P2;SDS_P1;SDS_P2;PMS_P1;PMS_P2;Temp;Humidity;BMP_temperature;BMP_pressure;BME280_temperature;BME280_humidity;BME280_pressure;Samples;Min_cycle;Max_cycle;Signal;HPM_P1;HPM_P2
2022/12/16 00:01:23;;;;;;;25.70;14.38;;;;;;;0.00;67.48;95342.28;5085889;28;20102;-78
2022/12/16 00:03:52;;;;;;;23.05;13.57;;;;;;;0.02;67.67;95339.56;5083281;28;20052;-78
2022/12/16 00:06:23;;;;;;;25.25;14.50;;;;;;;0.01;67.29;95345.66;5076179;28;20049;-78
2022/12/16 00:08:51;;;;;;;24.08;14.63;;;;;;;-0.01;67.22;95346.59;5076128;28;20059;-79
2022/12/16 00:11:21;;;;;;;23.10;13.70;;;;;;;-0.03;67.30;95345.94;5093284;28;20074;-79
2022/12/16 00:13:49;;;;;;;25.42;14.88;;;;;;;-0.02;67.20;95337.31;5093656;28;20049;-79
2022/12/16 00:16:19;;;;;;;23.83;14.68;;;;;;;-0.03;67.41;95333.13;5076961;28;20139;-79
2022/12/16 00:18:47;;;;;;;22.55;14.25;;;;;;;-0.05;67.32;95337.56;5075974;28;20048;-78
2022/12/16 00:21:17;;;;;;;26.85;15.13;;;;;;;-0.07;67.60;95331.78;5076132;28;20055;-79
2022/12/16 00:23:45;;;;;;;23.70;14.55;;;;;;;-0.05;67.39;95326.53;5075646;28;20060;-79
2022/12/16 00:26:13;;;;;;;24.48;14.45;;;;;;;-0.08;66.82;95325.06;5076178;28;20418;-78
2022/12/16 00:28:43;;;;;;;28.90;16.63;;;;;;;-0.15;66.67;95318.94;5075532;28;20056;-79
2022/12/16 00:31:11;;;;;;;26.15;14.52;;;;;;;-0.16;67.19;95327.56;5075927;28;20045;-78
2022/12/16 00:33:38;;;;;;;22.75;13.63;;;;;;;-0.17;67.09;95331.09;5075422;28;20060;-78
2022/12/16 00:36:07;;;;;;;26.60;14.43;;;;;;;-0.20;67.29;95328.78;5075150;28;20051;-79
2022/12/16 00:38:34;;;;;;;29.45;17.20;;;;;;;-0.20;67.39;95333.91;5074939;28;20472;-79
2022/12/16 00:41:02;;;;;;;24.55;14.73;;;;;;;-0.17;66.88;95336.22;5075327;28;20056;-78
2022/12/16 00:43:29;;;;;;;27.20;15.55;;;;;;;-0.17;67.07;95343.91;5075439;28;20059;-79
2022/12/16 00:45:59;;;;;;;25.42;14.30;;;;;;;-0.16;67.46;95342.13;5075357;28;20091;-78
2022/12/16 00:48:27;;;;;;;26.13;15.43;;;;;;;-0.14;67.07;95341.03;5075340;28;20048;-77
2022/12/16 00:50:55;;;;;;;28.25;15.98;;;;;;;-0.14;67.08;95345.34;5089274;28;20055;-78
2022/12/16 00:53:24;;;;;;;30.42;16.83;;;;;;;-0.19;67.17;95342.44;5097929;28;20096;-79
2022/12/16 00:55:52;;;;;;;24.08;15.68;;;;;;;-0.21;67.26;95340.00;5091306;28;20044;-79
2022/12/16 00:58:20;;;;;;;28.45;17.30;;;;;;;-0.23;67.37;95347.84;5075977;28;20060;-79
2022/12/16 01:00:47;;;;;;;29.90;17.08;;;;;;;-0.23;67.80;95344.47;5075526;28;20053;-78
2022/12/16 01:03:16;;;;;;;28.45;16.10;;;;;;;-0.21;67.26;95350.25;5075969;28;20494;-78
2022/12/16 01:05:48;;;;;;;27.65;15.45;;;;;;;-0.18;67.70;95344.84;5075267;28;20491;-77
2022/12/16 01:08:17;;;;;;;27.38;17.20;;;;;;;-0.15;67.33;95344.56;5075034;28;20056;-78
2022/12/16 01:10:50;;;;;;;29.73;17.67;;;;;;;-0.16;67.01;95340.38;5074706;28;20520;-78
2022/12/16 01:13:19;;;;;;;31.50;17.35;;;;;;;-0.19;67.34;95343.22;5074771;28;20048;-78
2022/12/16 01:15:46;;;;;;;27.60;15.82;;;;;;;-0.21;67.38;95334.88;5074713;28;20044;-78
2022/12/16 01:18:14;;;;;;;30.38;16.88;;;;;;;-0.20;67.84;95336.47;5074145;28;20060;-78
2022/12/16 01:20:43;;;;;;;31.23;16.85;;;;;;;-0.18;67.80;95329.44;5074654;28;20414;-77
2022/12/16 01:23:11;;;;;;;26.10;16.08;;;;;;;-0.16;67.39;95337.81;5074956;28;20058;-78
2022/12/16 01:25:38;;;;;;;30.38;17.67;;;;;;;-0.14;67.66;95329.97;5074161;28;20056;-78
2022/12/16 01:28:06;;;;;;;31.05;17.20;;;;;;;-0.12;67.93;95334.00;5072700;28;20060;-78
2022/12/16 01:30:35;;;;;;;30.27;17.48;;;;;;;-0.08;67.63;95331.97;5073828;28;20048;-78
2022/12/16 01:33:02;;;;;;;29.92;17.42;;;;;;;-0.09;67.66;95336.28;5074048;28;20506;-78
2022/12/16 01:35:30;;;;;;;30.00;17.75;;;;;;;-0.11;67.66;95345.88;5074017;28;20044;-78
2022/12/16 01:38:19;;;;;;;30.23;17.58;;;;;;;-0.10;67.85;95350.03;5073244;28;20056;-78
2022/12/16 01:40:46;;;;;;;30.45;17.63;;;;;;;-0.10;67.98;95354.38;5073685;28;20048;-78
2022/12/16 01:43:15;;;;;;;29.27;16.05;;;;;;;-0.11;68.16;95365.56;5073703;28;20068;-78
2022/12/16 01:45:42;;;;;;;29.25;17.35;;;;;;;-0.07;67.96;95361.75;5073770;28;20048;-77
2022/12/16 01:48:22;;;;;;;32.05;18.90;;;;;;;-0.04;68.26;95382.78;5073278;28;20069;-78
2022/12/16 01:50:52;;;;;;;32.53;17.90;;;;;;;0.01;68.04;95374.66;5073518;28;20525;-78
2022/12/16 01:53:21;;;;;;;28.88;17.85;;;;;;;0.04;68.07;95381.25;5073460;28;20052;-78
2022/12/16 01:55:52;;;;;;;30.50;16.80;;;;;;;0.07;67.82;95386.09;5073768;28;20075;-78
2022/12/16 01:58:22;;;;;;;29.45;17.50;;;;;;;0.09;67.69;95392.69;5073567;28;20049;-78
2022/12/16 02:00:50;;;;;;;30.35;17.08;;;;;;;0.10;67.77;95393.47;5073445;28;20054;-79
2022/12/16 02:03:18;;;;;;;30.85;19.52;;;;;;;0.08;67.78;95403.88;5073437;28;20052;-78
2022/12/16 02:05:48;;;;;;;30.88;16.85;;;;;;;0.06;68.00;95400.66;5073356;28;20048;-78
2022/12/16 02:08:17;;;;;;;30.25;18.83;;;;;;;0.08;68.15;95408.19;5077330;28;20035;-79
2022/12/16 02:11:00;;;;;;;30.75;16.60;;;;;;;0.08;68.36;95406.44;5096101;28;20131;-78
2022/12/16 02:13:35;;;;;;;31.30;18.17;;;;;;;0.09;68.54;95391.84;5095483;28;20516;-79
2022/12/16 02:16:15;;;;;;;29.92;18.15;;;;;;;0.10;67.99;95393.47;5072954;28;20053;-79
2022/12/16 02:18:52;;;;;;;33.78;18.40;;;;;;;0.07;68.09;95398.91;5072909;28;20049;-79
2022/12/16 02:21:38;;;;;;;29.45;18.88;;;;;;;0.03;68.41;95402.72;5075066;28;20098;-78
2022/12/16 02:24:37;;;;;;;34.70;20.15;;;;;;;-0.03;68.30;95398.97;5054090;28;20049;-79
2022/12/16 02:27:59;;;;;;;31.25;19.13;;;;;;;-0.05;68.83;95404.22;5052662;28;20048;-79
2022/12/16 02:30:50;;;;;;;30.73;17.58;;;;;;;-0.10;68.61;95403.06;4950918;29;20047;-78
2022/12/16 02:33:33;;;;;;;33.47;19.15;;;;;;;-0.13;68.92;95399.03;5034057;28;20478;-78
2022/12/16 02:36:11;;;;;;;32.83;18.63;;;;;;;-0.12;69.06;95390.38;5053376;28;20059;-78
2022/12/16 02:38:48;;;;;;;30.30;18.90;;;;;;;-0.10;68.94;95388.50;5051890;28;20049;-78
2022/12/16 02:41:28;;;;;;;30.27;18.27;;;;;;;-0.05;69.21;95395.75;5052886;28;20494;-78
2022/12/16 02:44:01;;;;;;;31.42;19.33;;;;;;;-0.01;68.90;95397.88;5053156;28;20049;-79
2022/12/16 02:46:32;;;;;;;31.98;19.63;;;;;;;0.04;68.99;95406.88;5052856;28;20418;-78
2022/12/16 02:49:06;;;;;;;32.67;18.90;;;;;;;0.07;69.62;95404.84;5052175;28;20045;-79
2022/12/16 02:51:37;;;;;;;28.75;17.25;;;;;;;0.12;68.84;95400.06;5052558;28;20049;-78
2022/12/16 02:54:07;;;;;;;31.48;18.13;;;;;;;0.17;68.93;95404.75;5054389;28;20044;-79
2022/12/16 02:56:50;;;;;;;32.55;20.10;;;;;;;0.20;68.31;95412.19;5055918;28;20059;-79
2022/12/16 02:59:26;;;;;;;28.73;17.55;;;;;;;0.21;68.35;95421.47;5054429;28;20056;-78
2022/12/16 03:02:03;;;;;;;28.70;17.05;;;;;;;0.23;68.45;95419.56;5053147;28;20406;-79
2022/12/16 03:04:38;;;;;;;30.00;18.95;;;;;;;0.25;68.88;95415.09;5057842;28;20049;-80
2022/12/16 03:07:09;;;;;;;28.30;18.00;;;;;;;0.26;68.26;95419.25;5076140;28;20057;-79
2022/12/16 03:09:39;;;;;;;32.75;19.13;;;;;;;0.26;68.19;95424.38;5075532;28;20032;-78
2022/12/16 03:12:11;;;;;;;26.65;18.42;;;;;;;0.28;68.20;95421.69;5064986;28;20478;-78
2022/12/16 03:14:42;;;;;;;31.35;18.33;;;;;;;0.30;68.22;95424.91;5054320;28;20049;-79
2022/12/16 03:17:14;;;;;;;33.83;19.52;;;;;;;0.30;68.56;95435.97;5052934;28;20049;-79
2022/12/16 03:19:45;;;;;;;27.75;17.88;;;;;;;0.32;68.29;95433.25;5052129;28;20056;-79
2022/12/16 03:22:17;;;;;;;32.88;19.20;;;;;;;0.32;68.95;95435.81;5052448;28;20514;-79
2022/12/16 03:24:44;;;;;;;30.90;18.42;;;;;;;0.32;68.28;95436.63;5052375;28;20458;-78
2022/12/16 03:27:18;;;;;;;31.85;19.35;;;;;;;0.32;68.73;95439.19;5052254;28;20049;-78
2022/12/16 03:29:53;;;;;;;31.98;19.90;;;;;;;0.35;69.05;95440.66;5052419;28;20487;-78
2022/12/16 03:32:27;;;;;;;29.40;18.38;;;;;;;0.36;68.99;95435.38;5052438;28;20068;-79
2022/12/16 03:34:59;;;;;;;31.63;18.33;;;;;;;0.39;69.27;95445.38;5052164;28;20419;-79
2022/12/16 03:37:32;;;;;;;32.53;18.83;;;;;;;0.40;69.38;95436.72;5052306;28;20525;-78
2022/12/16 03:40:03;;;;;;;33.05;20.27;;;;;;;0.43;69.37;95442.50;5051791;28;20522;-78
2022/12/16 03:42:31;;;;;;;32.58;18.40;;;;;;;0.40;69.18;95435.91;5052392;28;20052;-79
2022/12/16 03:44:58;;;;;;;31.25;19.10;;;;;;;0.43;69.67;95439.94;5052284;28;20059;-79
2022/12/16 03:47:29;;;;;;;33.63;19.80;;;;;;;0.45;69.48;95443.16;5052686;28;20057;-79
2022/12/16 03:49:56;;;;;;;32.40;19.00;;;;;;;0.46;69.70;95444.75;5065060;28;20045;-79
2022/12/16 03:52:24;;;;;;;31.20;18.63;;;;;;;0.46;69.39;95440.47;5065885;28;20053;-80
2022/12/16 03:54:51;;;;;;;35.53;19.65;;;;;;;0.46;69.54;95439.63;5058533;28;20049;-79
2022/12/16 03:57:19;;;;;;;32.58;19.05;;;;;;;0.45;69.66;95441.38;5055900;28;20092;-79
2022/12/16 03:59:46;;;;;;;34.75;19.45;;;;;;;0.44;69.11;95442.34;5055683;28;20071;-79
2022/12/16 04:02:14;;;;;;;29.92;17.80;;;;;;;0.41;69.36;95453.69;5055879;28;20044;-79
2022/12/16 04:04:43;;;;;;;31.13;19.70;;;;;;;0.43;69.98;95460.47;5055653;28;20083;-79
2022/12/16 04:07:20;;;;;;;29.70;18.95;;;;;;;0.46;69.90;95460.16;5055560;28;20059;-79
2022/12/16 04:09:49;;;;;;;33.60;20.00;;;;;;;0.48;70.32;95463.38;5055263;28;20106;-79
2022/12/16 04:26:03;;;;;;;29.83;18.77;;;;;;;0.53;69.62;95471.47;5055411;28;20064;-78
2022/12/16 04:28:30;;;;;;;35.63;21.13;;;;;;;0.50;69.62;95471.75;5054816;28;20264;-78
2022/12/16 04:30:58;;;;;;;34.03;20.27;;;;;;;0.50;69.51;95469.16;5062081;28;20045;-78
